Time;durP1;ratioP1;P1;durP2;ratioP2;P2;SDS_P1;SDS_P2;PMS_P1;PMS_P2;Temp;Humidity;BMP_temperature;BMP_pressure;BME280_temperature;BME280_humidity;BME280_pressure;Samples;Min_cycle;Max_cycle;Signal;HPM_P1;HPM_P2
2021/08/27 00:00:29;;;;;;;5.10;4.20;;;;;;;10.50;78.63;96846.32;116231;1183;69731;-67
2021/08/27 00:03:02;;;;;;;6.00;3.50;;;;;;;10.49;78.84;96848.85;116192;1180;68409;-67
2021/08/27 00:05:32;;;;;;;5.90;3.60;;;;;;;10.49;79.66;96847.11;116179;1182;69277;-68
2021/08/27 00:08:02;;;;;;;;;;;;;;;10.48;78.05;96848.42;116238;1182;58728;-68
2021/08/27 00:10:33;;;;;;;3.90;2.60;;;;;;;10.49;77.97;96847.69;116165;1181;58729;-68
2021/08/27 00:13:03;;;;;;;6.80;5.20;;;;;;;10.47;79.62;96848.29;116146;1182;70224;-66
2021/08/27 00:15:32;;;;;;;;;;;;;;;10.42;80.72;96849.58;116246;1182;68420;-65
2021/08/27 00:18:03;;;;;;;6.60;4.20;;;;;;;10.41;79.61;96845.33;116259;1182;69210;-66
2021/08/27 00:20:33;;;;;;;5.80;4.00;;;;;;;10.41;79.24;96845.83;116154;1178;58726;-69
2021/08/27 00:23:03;;;;;;;6.30;4.40;;;;;;;10.43;78.79;96842.06;116179;1177;59175;-68
2021/08/27 00:25:33;;;;;;;;;;;;;;;10.42;80.71;96840.35;116297;1181;70565;-67
2021/08/27 00:28:05;;;;;;;6.70;4.40;;;;;;;10.41;79.53;96834.20;116355;1180;69190;-68
2021/08/27 00:30:36;;;;;;;14.00;9.60;;;;;;;10.42;79.05;96836.39;116201;1182;69012;-68
2021/08/27 00:33:07;;;;;;;16.70;13.50;;;;;;;10.43;78.71;96836.64;116336;1182;58749;-67
2021/08/27 00:35:36;;;;;;;23.30;18.20;;;;;;;10.43;79.35;96833.30;116292;1180;58702;-68
2021/08/27 00:38:14;;;;;;;17.00;12.20;;;;;;;10.42;79.52;96830.59;116149;1182;69744;-67
2021/08/27 00:40:44;;;;;;;15.10;10.90;;;;;;;10.43;78.81;96829.85;116238;1181;69114;-65
2021/08/27 00:43:14;;;;;;;12.00;9.50;;;;;;;10.44;77.95;96827.68;116219;1181;68537;-65
2021/08/27 00:45:44;;;;;;;;;;;;;;;10.47;77.64;96829.70;116186;1181;58745;-66
2021/08/27 00:48:15;;;;;;;18.40;12.20;;;;;;;10.50;77.95;96832.09;116221;1182;58724;-68
2021/08/27 00:50:47;;;;;;;10.90;8.50;;;;;;;10.49;78.57;96830.73;116171;1182;70257;-67
2021/08/27 00:53:18;;;;;;;13.10;11.40;;;;;;;10.48;78.87;96829.23;116195;1181;69174;-65
2021/08/27 00:55:48;;;;;;;15.10;8.40;;;;;;;10.45;79.49;96828.27;116238;1182;68308;-65
2021/08/27 00:58:18;;;;;;;;;;;;;;;10.45;78.88;96831.23;116280;1178;58741;-66
2021/08/27 01:00:48;;;;;;;15.70;11.90;;;;;;;10.41;81.79;96832.12;116295;1180;58668;-68
2021/08/27 01:03:19;;;;;;;20.20;14.70;;;;;;;10.38;81.55;96834.13;116234;1178;70635;-68
2021/08/27 01:06:14;;;;;;;14.50;12.60;;;;;;;10.34;81.69;96836.17;116191;1182;68415;-68
2021/08/27 01:09:03;;;;;;;17.60;12.30;;;;;;;10.32;81.35;96834.20;116206;1181;69181;-68
2021/08/27 01:11:57;;;;;;;8.60;6.60;;;;;;;10.32;80.04;96831.67;116163;1182;58740;-67
2021/08/27 01:14:34;;;;;;;8.60;6.20;;;;;;;10.33;79.00;96829.27;116333;1181;58690;-67
2021/08/27 01:17:12;;;;;;;10.30;7.20;;;;;;;10.34;78.91;96825.02;116251;1177;69895;-67
2021/08/27 01:20:20;;;;;;;8.30;6.40;;;;;;;10.35;78.99;96826.33;116184;1181;69671;-66
2021/08/27 01:23:13;;;;;;;13.10;10.90;;;;;;;10.37;81.04;96832.91;116206;1182;68412;-67
2021/08/27 01:25:49;;;;;;;10.60;8.00;;;;;;;10.37;82.32;96837.10;116197;1180;58774;-68
2021/08/27 01:28:23;;;;;;;9.30;7.40;;;;;;;10.34;82.48;96839.06;116226;1182;58702;-67
2021/08/27 01:31:20;;;;;;;12.10;8.40;;;;;;;10.35;81.93;96834.36;116246;1182;70618;-67
2021/08/27 01:34:34;;;;;;;11.30;9.40;;;;;;;10.35;82.89;96841.99;116148;1181;68420;-66
2021/08/27 01:37:09;;;;;;;6.30;4.30;;;;;;;10.39;81.59;96833.84;116124;1183;68888;-65
2021/08/27 01:39:47;;;;;;;6.20;4.80;;;;;;;10.42;80.37;96829.02;116236;1182;58748;-66
2021/08/27 01:42:22;;;;;;;11.50;9.10;;;;;;;10.46;81.60;96840.55;116200;1183;58710;-65
2021/08/27 01:44:56;;;;;;;10.90;7.00;;;;;;;10.44;81.73;96836.34;116260;1181;70491;-64
2021/08/27 01:47:31;;;;;;;8.40;6.00;;;;;;;10.45;82.25;96829.02;116300;1182;69164;-68
2021/08/27 01:50:02;;;;;;;11.90;8.20;;;;;;;10.46;82.54;96831.31;116396;1181;68343;-68
2021/08/27 01:52:34;;;;;;;7.70;4.50;;;;;;;10.48;84.20;96825.21;116276;1181;58745;-66
2021/08/27 01:55:09;;;;;;;7.70;5.90;;;;;;;10.52;82.12;96821.25;116412;1181;58643;-67
2021/08/27 01:57:41;;;;;;;7.30;5.90;;;;;;;10.55;83.63;96824.02;116268;1182;70435;-65
2021/08/27 02:00:12;;;;;;;8.50;5.90;;;;;;;10.57;83.02;96828.84;116250;1178;69168;-67
2021/08/27 02:02:45;;;;;;;8.90;6.50;;;;;;;10.62;81.30;96832.98;116229;1181;69128;-65
2021/08/27 02:05:17;;;;;;;12.50;9.90;;;;;;;10.61;82.05;96826.23;116414;1181;58754;-66
2021/08/27 02:07:49;;;;;;;10.70;7.90;;;;;;;10.58;83.31;96825.66;116200;1178;58681;-66
2021/08/27 02:10:19;;;;;;;13.50;9.60;;;;;;;10.56;83.48;96826.02;116210;1182;70340;-68
2021/08/27 02:12:49;;;;;;;6.90;4.90;;;;;;;10.54;83.67;96828.63;116242;1181;69167;-65
2021/08/27 02:15:23;;;;;;;9.20;5.60;;;;;;;10.57;82.20;96834.98;116274;1177;69194;-66
2021/08/27 02:17:54;;;;;;;8.80;5.30;;;;;;;10.58;82.96;96836.14;116231;1181;58765;-66
2021/08/27 02:20:24;;;;;;;9.00;6.80;;;;;;;10.59;83.10;96830.44;116228;1180;58814;-67
2021/08/27 02:22:57;;;;;;;7.60;5.70;;;;;;;10.62;82.55;96831.91;116282;1181;70535;-64
2021/08/27 02:25:31;;;;;;;5.80;4.40;;;;;;;10.60;82.15;96831.58;116349;1182;69167;-65
2021/08/27 02:28:03;;;;;;;6.90;5.60;;;;;;;10.60;81.58;96826.91;116220;1181;69011;-66
2021/08/27 02:30:35;;;;;;;6.40;4.40;;;;;;;10.59;81.75;96825.91;116253;1181;58737;-68
2021/08/27 02:33:09;;;;;;;5.80;4.00;;;;;;;10.59;81.86;96830.44;116231;1182;58813;-67
2021/08/27 02:35:42;;;;;;;7.30;4.60;;;;;;;10.60;81.39;96832.45;116232;1182;69475;-65
2021/08/27 02:38:17;;;;;;;4.90;3.70;;;;;;;10.60;81.10;96831.40;116206;1183;69171;-64
2021/08/27 02:40:46;;;;;;;5.40;3.60;;;;;;;10.62;80.67;96835.43;116305;1182;69284;-68
2021/08/27 02:43:17;;;;;;;8.40;5.90;;;;;;;10.64;80.52;96829.48;116161;1183;59224;-69
2021/08/27 02:45:47;;;;;;;9.80;6.70;;;;;;;10.62;82.89;96828.06;116283;1181;58745;-67
2021/08/27 02:48:17;;;;;;;8.20;6.10;;;;;;;10.61;83.40;96828.55;116221;1181;69956;-65
2021/08/27 02:51:04;;;;;;;10.40;7.60;;;;;;;10.60;83.48;96826.06;116243;1182;69015;-66
2021/08/27 02:53:39;;;;;;;9.20;7.40;;;;;;;10.57;83.20;96828.89;116245;1182;69038;-67
2021/08/27 02:56:32;;;;;;;10.90;7.50;;;;;;;10.53;83.23;96830.04;116250;1181;58717;-67
2021/08/27 02:59:10;;;;;;;8.70;5.80;;;;;;;10.50;82.73;96828.42;116253;1182;58739;-64
2021/08/27 03:01:52;;;;;;;9.50;6.20;;;;;;;10.46;83.62;96827.49;116284;1181;70556;-66
2021/08/27 03:04:47;;;;;;;9.30;7.00;;;;;;;10.40;83.27;96829.03;116286;1182;68417;-67
2021/08/27 03:07:19;;;;;;;9.70;6.60;;;;;;;10.36;82.80;96826.95;116353;1182;68434;-68
2021/08/27 03:09:49;;;;;;;9.20;6.50;;;;;;;10.29;83.70;96828.77;116198;1177;59193;-67
2021/08/27 03:12:27;;;;;;;5.60;4.40;;;;;;;10.26;82.98;96826.39;116226;1181;58740;-65
2021/08/27 03:14:59;;;;;;;8.10;5.60;;;;;;;10.25;82.64;96827.17;116243;1181;70385;-67
2021/08/27 03:17:34;;;;;;;7.40;5.20;;;;;;;10.25;84.27;96830.29;116174;1183;68966;-66
2021/08/27 03:20:15;;;;;;;5.10;3.60;;;;;;;10.25;83.04;96831.16;116230;1182;69250;-68
2021/08/27 03:22:58;;;;;;;7.60;4.70;;;;;;;10.26;83.22;96833.51;116230;1180;58739;-67
2021/08/27 03:25:29;;;;;;;7.00;4.40;;;;;;;10.27;82.49;96838.45;116221;1182;58706;-64
2021/08/27 03:28:03;;;;;;;4.90;3.70;;;;;;;10.30;82.25;96837.21;116234;1182;71707;-68
2021/08/27 03:30:34;;;;;;;6.10;4.90;;;;;;;10.33;81.86;96838.54;116368;1182;69001;-69
2021/08/27 03:33:09;;;;;;;6.60;5.00;;;;;;;10.36;81.97;96838.77;116265;1182;69045;-66
2021/08/27 03:35:39;;;;;;;8.40;5.60;;;;;;;10.40;82.01;96834.80;116236;1178;58729;-66
2021/08/27 03:38:10;;;;;;;6.60;4.80;;;;;;;10.45;81.83;96831.39;116277;1181;58742;-64
2021/08/27 03:40:40;;;;;;;8.80;6.50;;;;;;;10.47;82.15;96830.91;116281;1181;70432;-67
2021/08/27 03:43:12;;;;;;;6.30;5.00;;;;;;;10.50;81.82;96835.91;116216;1182;69126;-69
2021/08/27 03:45:43;;;;;;;5.40;4.00;;;;;;;10.53;81.20;96831.44;116261;1181;69369;-65
2021/08/27 03:48:14;;;;;;;5.90;4.70;;;;;;;10.56;81.42;96830.19;116246;1182;58736;-64
2021/08/27 03:50:45;;;;;;;6.60;3.90;;;;;;;10.58;81.18;96835.56;116195;1182;58726;-68
2021/08/27 03:53:15;;;;;;;4.80;4.00;;;;;;;10.60;82.04;96843.45;116251;1183;70931;-67
2021/08/27 03:55:50;;;;;;;4.80;3.30;;;;;;;10.62;81.79;96849.52;116218;1183;68960;-65
2021/08/27 03:58:22;;;;;;;6.00;4.40;;;;;;;10.67;80.86;96847.38;116332;1178;67502;-69
2021/08/27 04:00:55;;;;;;;5.90;4.80;;;;;;;10.72;81.10;96851.66;116193;1180;58690;-66
2021/08/27 04:03:25;;;;;;;7.50;5.60;;;;;;;10.78;82.04;96849.77;116258;1178;58722;-67
2021/08/27 04:06:01;;;;;;;8.80;6.20;;;;;;;10.85;81.70;96845.39;116176;1180;69790;-67
2021/08/27 04:08:41;;;;;;;9.60;6.20;;;;;;;10.93;81.88;96838.25;116293;1179;68552;-68
2021/08/27 04:11:14;;;;;;;6.60;5.30;;;;;;;11.05;81.64;96835.35;116215;1182;68623;-66
2021/08/27 04:13:44;;;;;;;6.60;4.90;;;;;;;11.20;81.23;96836.36;116235;1182;58729;-66
2021/08/27 04:16:14;;;;;;;5.40;4.10;;;;;;;11.37;80.73;96833.15;116224;1182;58681;-68
2021/08/27 04:18:43;;;;;;;5.10;4.00;;;;;;;11.61;80.07;96837.40;116273;1182;70536;-67
2021/08/27 04:21:13;;;;;;;6.40;4.50;;;;;;;11.81;79.64;96836.36;116263;1182;69139;-69
2021/08/27 04:23:43;;;;;;;4.40;3.50;;;;;;;11.98;79.23;96842.27;116213;1182;69289;-65
2021/08/27 04:26:13;;;;;;;10.20;6.10;;;;;;;12.11;78.52;96836.77;116251;1178;58724;-66
2021/08/27 04:28:42;;;;;;;12.10;7.90;;;;;;;12.20;77.68;96836.46;116288;1182;58800;-64
2021/08/27 04:31:12;;;;;;;9.70;5.70;;;;;;;12.18;77.54;96836.32;116278;1182;70369;-66
2021/08/27 04:33:41;;;;;;;8.00;5.40;;;;;;;12.28;77.51;96835.98;116228;1181;69139;-66
2021/08/27 04:36:11;;;;;;;8.30;4.80;;;;;;;12.31;76.98;96836.40;116119;1182;68343;-67
2021/08/27 04:38:41;;;;;;;7.40;4.70;;;;;;;12.28;77.20;96830.38;116397;1179;58721;-66
2021/08/27 04:41:10;;;;;;;6.00;4.30;;;;;;;12.26;77.17;96828.94;116347;1181;58666;-69
2021/08/27 04:43:40;;;;;;;8.10;5.40;;;;;;;12.27;77.20;96827.17;116178;1181;69571;-67
2021/08/27 04:46:11;;;;;;;8.00;4.40;;;;;;;12.27;77.05;96836.78;116233;1182;67997;-68
2021/08/27 04:48:41;;;;;;;7.80;5.80;;;;;;;12.22;77.35;96840.96;116294;1181;69178;-66
2021/08/27 04:51:10;;;;;;;6.20;4.80;;;;;;;12.20;77.79;96843.44;116199;1179;58747;-67
2021/08/27 04:53:40;;;;;;;6.80;4.50;;;;;;;12.21;77.63;96845.27;116206;1179;58741;-65
2021/08/27 04:56:10;;;;;;;5.50;4.40;;;;;;;12.24;77.37;96846.45;116165;1182;69801;-67
2021/08/27 04:58:39;;;;;;;7.40;5.00;;;;;;;12.29;76.85;96845.52;116335;1178;69104;-64
2021/08/27 05:01:09;;;;;;;5.50;4.10;;;;;;;12.31;76.39;96842.16;116274;1181;69036;-68
2021/08/27 05:03:39;;;;;;;;;;;;;;;12.37;76.13;96844.27;116336;1181;58749;-67
2021/08/27 05:06:09;;;;;;;7.40;5.00;;;;;;;12.44;76.14;96848.11;116257;1181;58733;-68
2021/08/27 05:08:38;;;;;;;5.90;4.30;;;;;;;12.63;75.68;96848.48;116357;1179;70370;-67
2021/08/27 05:11:07;;;;;;;8.60;5.00;;;;;;;12.95;75.37;96851.61;116246;1182;69180;-66
2021/08/27 05:13:37;;;;;;;6.70;5.30;;;;;;;13.36;74.61;96853.46;116399;1182;68307;-67
2021/08/27 05:16:07;;;;;;;6.70;4.30;;;;;;;13.84;73.23;96855.92;116276;1180;59181;-68
2021/08/27 05:18:37;;;;;;;6.70;4.20;;;;;;;14.18;72.26;96850.92;116213;1182;58766;-64
2021/08/27 05:21:06;;;;;;;6.20;4.10;;;;;;;14.43;70.97;96852.52;116252;1181;69812;-65
2021/08/27 05:23:35;;;;;;;5.70;3.80;;;;;;;14.60;70.26;96853.19;116149;1183;67430;-67
2021/08/27 05:26:05;;;;;;;4.90;3.40;;;;;;;14.80;71.26;96852.77;116335;1179;69328;-67
2021/08/27 05:28:34;;;;;;;5.00;3.60;;;;;;;15.15;70.82;96846.13;116214;1182;58727;-64
2021/08/27 05:31:04;;;;;;;7.00;4.90;;;;;;;15.61;69.45;96841.13;116254;1182;58724;-64
2021/08/27 05:33:33;;;;;;;6.80;4.90;;;;;;;16.13;67.60;96844.41;116178;1182;70669;-64
2021/08/27 05:36:05;;;;;;;5.40;4.10;;;;;;;16.59;63.98;96844.53;116239;1182;69029;-64
2021/08/27 05:38:34;;;;;;;5.90;4.10;;;;;;;16.93;66.06;96846.54;116198;1182;68283;-64
2021/08/27 05:41:06;;;;;;;5.60;4.40;;;;;;;17.05;62.81;96845.88;116202;1182;58732;-64
2021/08/27 05:43:35;;;;;;;4.70;3.60;;;;;;;17.04;63.42;96852.56;116336;1178;59202;-64
2021/08/27 05:46:04;;;;;;;5.30;3.70;;;;;;;17.01;63.58;96860.98;116143;1182;70236;-67
2021/08/27 05:48:33;;;;;;;6.10;3.90;;;;;;;17.08;64.75;96870.06;116084;1181;68497;-65
2021/08/27 05:51:03;;;;;;;5.40;3.80;;;;;;;17.11;62.08;96872.34;116220;1182;69279;-64
2021/08/27 05:53:32;;;;;;;;;;;;;;;17.12;63.11;96868.77;116097;1183;58724;-64
2021/08/27 05:56:02;;;;;;;5.20;3.90;;;;;;;17.08;60.97;96872.85;116201;1182;58753;-65
2021/08/27 05:58:31;;;;;;;6.70;3.90;;;;;;;17.02;62.60;96874.18;116207;1178;69645;-65
2021/08/27 06:01:01;;;;;;;4.20;3.10;;;;;;;16.99;63.38;96875.63;116222;1182;68319;-63
2021/08/27 06:03:30;;;;;;;4.80;3.10;;;;;;;16.97;63.70;96875.64;116261;1181;69337;-65
2021/08/27 06:05:59;;;;;;;6.80;3.90;;;;;;;17.03;63.88;96882.07;116239;1182;58720;-64
2021/08/27 06:08:29;;;;;;;;;;;;;;;17.08;62.68;96886.30;116310;1182;58735;-68
2021/08/27 06:10:59;;;;;;;4.30;2.90;;;;;;;17.00;61.35;96882.00;116275;1178;69803;-65
2021/08/27 06:13:29;;;;;;;4.50;2.60;;;;;;;16.97;61.73;96885.16;116206;1182;68536;-65
2021/08/27 06:15:58;;;;;;;5.50;3.40;;;;;;;17.03;61.74;96890.29;116288;1182;69222;-64
2021/08/27 06:18:28;;;;;;;5.10;3.40;;;;;;;17.11;60.87;96899.73;116216;1182;58719;-65
2021/08/27 06:20:57;;;;;;;5.80;4.40;;;;;;;17.11;60.79;96904.42;116429;1178;58745;-65
2021/08/27 06:23:27;;;;;;;5.40;3.50;;;;;;;17.08;60.72;96907.02;116209;1182;69562;-64
2021/08/27 06:25:57;;;;;;;5.50;4.30;;;;;;;17.13;60.76;96901.55;116295;1181;69012;-64
2021/08/27 06:28:26;;;;;;;;;;;;;;;17.21;59.76;96900.65;116266;1181;69208;-64
2021/08/27 06:30:55;;;;;;;4.70;3.10;;;;;;;17.60;59.83;96892.80;116316;1182;58801;-65
2021/08/27 06:33:25;;;;;;;6.40;3.90;;;;;;;18.45;58.88;96884.04;116259;1182;58723;-65
2021/08/27 06:35:54;;;;;;;3.40;2.50;;;;;;;19.49;56.79;96872.20;116232;1182;70563;-64
2021/08/27 06:38:24;;;;;;;5.40;4.00;;;;;;;20.50;52.08;96862.25;116253;1182;68223;-65
2021/08/27 06:41:04;;;;;;;7.40;4.80;;;;;;;21.16;48.73;96857.66;116295;1182;69267;-68
2021/08/27 06:43:39;;;;;;;11.50;6.80;;;;;;;21.76;48.47;96864.30;116246;1183;59129;-65
2021/08/27 06:46:27;;;;;;;6.10;4.60;;;;;;;22.53;44.65;96870.20;116368;1181;58718;-67
2021/08/27 06:48:56;;;;;;;3.50;2.70;;;;;;;23.02;44.51;96881.48;116265;1179;70655;-65
2021/08/27 06:51:27;;;;;;;4.90;3.10;;;;;;;23.77;46.19;96880.66;116269;1181;67662;-65
2021/08/27 06:53:56;;;;;;;4.10;2.70;;;;;;;24.51;44.51;96876.16;116187;1182;69141;-65
2021/08/27 06:56:29;;;;;;;4.40;3.20;;;;;;;25.07;42.41;96868.55;116260;1182;59118;-65
2021/08/27 06:58:59;;;;;;;3.20;2.20;;;;;;;25.31;38.46;96868.89;116269;1182;58731;-64
2021/08/27 07:01:29;;;;;;;3.50;2.70;;;;;;;25.47;38.28;96866.61;116261;1181;70564;-64
2021/08/27 07:03:59;;;;;;;3.60;2.40;;;;;;;25.71;38.90;96857.31;116664;1181;68221;-65
2021/08/27 07:06:28;;;;;;;3.90;2.40;;;;;;;26.26;39.45;96849.28;116275;1182;69131;-67
2021/08/27 07:08:57;;;;;;;4.70;2.50;;;;;;;27.24;36.64;96853.16;116366;1181;58714;-67
2021/08/27 07:11:26;;;;;;;4.10;2.30;;;;;;;27.50;34.68;96854.95;116203;1182;58712;-63
2021/08/27 07:13:56;;;;;;;4.30;2.60;;;;;;;27.71;35.47;96847.79;116173;1182;69115;-65
2021/08/27 07:16:25;;;;;;;3.80;2.30;;;;;;;27.77;34.32;96835.38;116251;1182;67432;-67
2021/08/27 07:18:54;;;;;;;3.40;2.70;;;;;;;27.70;35.33;96825.13;116324;1180;69215;-64
2021/08/27 07:21:23;;;;;;;4.70;3.10;;;;;;;27.75;34.12;96819.81;116153;1179;58807;-66
2021/08/27 07:23:53;;;;;;;5.20;3.70;;;;;;;26.68;36.09;96827.08;116270;1178;58752;-66
2021/08/27 07:26:22;;;;;;;;;;;;;;;25.84;38.18;96827.46;116374;1179;70470;-65
2021/08/27 07:28:50;;;;;;;4.50;3.10;;;;;;;25.27;38.96;96826.43;116165;1182;68461;-66
2021/08/27 07:31:20;;;;;;;;;;;;;;;24.82;40.42;96821.05;116209;1181;69274;-68
2021/08/27 07:33:49;;;;;;;4.20;2.60;;;;;;;24.95;40.68;96816.80;116339;1182;58710;-65
2021/08/27 07:36:18;;;;;;;3.30;2.30;;;;;;;25.23;39.57;96813.11;116173;1180;58681;-65
2021/08/27 07:38:48;;;;;;;4.40;2.60;;;;;;;25.55;38.08;96807.35;116290;1181;69595;-65
2021/08/27 07:41:16;;;;;;;3.50;2.40;;;;;;;25.36;38.55;96804.52;116192;1183;68247;-64
2021/08/27 07:43:46;;;;;;;4.40;3.00;;;;;;;25.37;38.62;96799.70;116209;1182;67508;-65
2021/08/27 07:46:15;;;;;;;;;;;;;;;25.35;38.99;96802.38;116193;1183;58744;-67
2021/08/27 07:48:44;;;;;;;3.70;2.90;;;;;;;25.09;39.65;96809.76;116530;1182;58691;-67
2021/08/27 07:51:13;;;;;;;4.80;2.10;;;;;;;24.82;39.82;96812.52;116180;1182;71122;-65
2021/08/27 07:53:43;;;;;;;3.60;2.30;;;;;;;24.96;39.19;96819.10;116187;1182;69327;-65
2021/08/27 07:56:12;;;;;;;;;;;;;;;25.26;38.28;96820.11;116185;1182;69873;-65
2021/08/27 07:58:41;;;;;;;2.90;1.90;;;;;;;24.94;37.93;96819.67;116207;1181;59204;-64
2021/08/27 08:01:10;;;;;;;;;;;;;;;24.94;37.97;96820.09;116198;1182;58737;-67
2021/08/27 08:03:39;;;;;;;2.90;2.10;;;;;;;24.49;37.66;96816.04;116312;1182;70366;-65
2021/08/27 08:06:10;;;;;;;3.60;2.60;;;;;;;24.45;37.68;96810.19;116239;1180;68852;-65
2021/08/27 08:08:39;;;;;;;3.60;2.30;;;;;;;24.14;38.14;96804.84;116271;1180;69025;-65
2021/08/27 08:11:10;;;;;;;3.70;2.60;;;;;;;24.21;38.33;96802.11;116199;1182;59493;-66
2021/08/27 08:13:39;;;;;;;4.90;2.60;;;;;;;24.05;39.06;96813.74;116223;1182;59469;-65
2021/08/27 08:16:09;;;;;;;4.20;2.50;;;;;;;23.91;39.93;96830.36;116351;1181;70693;-65
2021/08/27 08:18:38;;;;;;;;;;;;;;;24.33;38.97;96842.98;116232;1182;69002;-64
2021/08/27 08:21:08;;;;;;;3.80;3.30;;;;;;;24.25;39.44;96835.04;116217;1181;68281;-65
2021/08/27 08:23:39;;;;;;;3.90;3.30;;;;;;;24.14;39.85;96831.86;116249;1184;59568;-66
2021/08/27 08:26:07;;;;;;;3.60;2.50;;;;;;;23.97;40.19;96835.77;116220;1181;59504;-64
2021/08/27 08:28:37;;;;;;;4.50;2.30;;;;;;;23.55;41.95;96840.54;116239;1180;70634;-65
2021/08/27 08:31:07;;;;;;;4.10;2.70;;;;;;;23.56;42.38;96846.56;116238;1178;69057;-65
2021/08/27 08:33:37;;;;;;;;;;;;;;;23.64;42.06;96847.25;116220;1182;68392;-65
2021/08/27 08:36:06;;;;;;;4.20;3.20;;;;;;;23.73;40.95;96842.98;116209;1179;59541;-65
2021/08/27 08:38:36;;;;;;;3.70;2.40;;;;;;;23.53;42.14;96835.81;116298;1181;59498;-67
2021/08/27 08:41:05;;;;;;;;;;;;;;;23.55;42.24;96837.45;116124;1184;70357;-65
2021/08/27 08:43:34;;;;;;;4.30;2.70;;;;;;;23.68;41.84;96830.55;116261;1181;68525;-66
2021/08/27 08:46:04;;;;;;;;;;;;;;;23.90;42.24;96819.92;116231;1181;68307;-65
2021/08/27 08:48:33;;;;;;;;;;;;;;;24.08;42.01;96815.17;116155;1182;59563;-66
2021/08/27 08:51:05;;;;;;;5.20;3.10;;;;;;;24.49;40.62;96817.90;116201;1180;59543;-66
2021/08/27 08:53:40;;;;;;;5.80;3.00;;;;;;;24.70;41.56;96815.27;116187;1182;71159;-67
2021/08/27 08:56:10;;;;;;;4.00;2.70;;;;;;;24.87;41.11;96814.25;116182;1182;68405;-65
2021/08/27 08:58:39;;;;;;;4.40;2.80;;;;;;;25.15;40.23;96817.29;116199;1181;69148;-66
2021/08/27 09:01:16;;;;;;;3.90;2.90;;;;;;;25.25;39.47;96813.77;116220;1181;59473;-66
2021/08/27 09:03:47;;;;;;;3.70;2.60;;;;;;;25.66;39.16;96809.84;116203;1178;59543;-66
2021/08/27 09:06:17;;;;;;;5.80;3.20;;;;;;;25.95;37.56;96809.71;116233;1183;70783;-67
2021/08/27 09:08:48;;;;;;;3.90;2.80;;;;;;;26.18;38.72;96809.81;116146;1182;68696;-65
2021/08/27 09:11:23;;;;;;;3.20;2.40;;;;;;;26.47;36.97;96808.40;116315;1181;69073;-66
2021/08/27 09:13:55;;;;;;;3.60;2.70;;;;;;;26.72;35.81;96793.88;116326;1181;59513;-67
2021/08/27 09:16:27;;;;;;;4.00;2.40;;;;;;;26.89;35.01;96781.90;116425;1182;59508;-67
2021/08/27 09:18:56;;;;;;;2.80;2.30;;;;;;;26.84;34.96;96778.83;116144;1184;70421;-68
2021/08/27 09:21:45;;;;;;;3.40;2.50;;;;;;;26.63;35.12;96781.34;116139;1182;69239;-66
2021/08/27 09:24:26;;;;;;;6.50;3.00;;;;;;;25.91;36.45;96773.19;116181;1182;68255;-66
2021/08/27 09:27:01;;;;;;;4.80;3.50;;;;;;;25.77;37.38;96770.62;116327;1181;59546;-65
2021/08/27 09:29:38;;;;;;;4.10;2.70;;;;;;;25.64;38.23;96774.77;116295;1179;59539;-66
2021/08/27 09:32:28;;;;;;;3.20;2.70;;;;;;;25.71;37.13;96774.77;116333;1178;70632;-65
2021/08/27 09:35:08;;;;;;;4.50;2.80;;;;;;;25.67;37.04;96771.98;116335;1181;68323;-65
2021/08/27 09:37:38;;;;;;;3.20;2.50;;;;;;;25.58;37.14;96774.02;116324;1179;69351;-65
2021/08/27 09:40:12;;;;;;;4.10;2.90;;;;;;;25.66;37.53;96775.65;116293;1179;59514;-66
2021/08/27 09:42:45;;;;;;;5.60;3.00;;;;;;;25.93;37.21;96779.50;116206;1181;59496;-65
2021/08/27 09:45:14;;;;;;;3.70;2.50;;;;;;;26.09;38.23;96779.11;116278;1178;70389;-65
2021/08/27 09:48:16;;;;;;;;;;;;;;;26.22;37.33;96775.29;116200;1183;68860;-67
2021/08/27 09:50:49;;;;;;;4.10;2.40;;;;;;;26.09;37.46;96779.40;115904;1186;69072;-66
2021/08/27 09:53:19;;;;;;;4.30;2.80;;;;;;;26.03;37.91;96780.76;115820;1183;59662;-65
2021/08/27 09:56:00;;;;;;;4.50;3.10;;;;;;;26.02;38.09;96781.52;115956;1183;59952;-68
2021/08/27 09:58:29;;;;;;;3.80;2.60;;;;;;;25.88;37.74;96772.63;116117;1181;70443;-66
2021/08/27 10:01:06;;;;;;;4.50;3.10;;;;;;;25.66;37.87;96767.14;116107;1182;69337;-69
2021/08/27 10:03:37;;;;;;;3.40;2.60;;;;;;;25.45;38.09;96762.63;116122;1183;68756;-66
2021/08/27 10:06:06;;;;;;;4.20;2.60;;;;;;;25.25;38.51;96762.77;116089;1185;59602;-65
2021/08/27 10:08:37;;;;;;;4.40;2.80;;;;;;;25.17;38.36;96754.66;115939;1185;59525;-67
2021/08/27 10:11:23;;;;;;;4.40;3.00;;;;;;;24.99;38.15;96745.20;116057;1184;70781;-67
2021/08/27 10:13:53;;;;;;;4.20;3.30;;;;;;;24.61;39.24;96744.39;116100;1185;68241;-66
2021/08/27 10:16:22;;;;;;;4.40;3.40;;;;;;;24.33;40.39;96745.92;116116;1184;69298;-66
2021/08/27 10:18:51;;;;;;;6.60;5.70;;;;;;;24.18;40.91;96750.36;116102;1185;59613;-67
2021/08/27 10:21:20;;;;;;;8.30;6.10;;;;;;;23.73;41.52;96752.17;116078;1184;59578;-66
2021/08/27 10:23:49;;;;;;;5.90;4.00;;;;;;;23.48;42.23;96751.28;116041;1184;71454;-65
2021/08/27 10:26:27;;;;;;;5.70;4.20;;;;;;;23.43;42.13;96743.42;115984;1184;69247;-65
2021/08/27 10:29:06;;;;;;;5.60;3.30;;;;;;;23.47;42.60;96740.34;116369;1181;68776;-65
2021/08/27 10:31:44;;;;;;;3.90;2.60;;;;;;;23.75;42.72;96739.42;116516;1179;59546;-66
2021/08/27 10:34:15;;;;;;;4.70;2.80;;;;;;;24.00;42.44;96741.38;116512;1181;59508;-66
2021/08/27 10:36:50;;;;;;;4.40;3.60;;;;;;;24.18;42.06;96738.70;116483;1181;71364;-66
2021/08/27 10:39:45;;;;;;;4.30;2.90;;;;;;;24.05;41.50;96747.02;116464;1178;68332;-65
2021/08/27 10:42:56;;;;;;;3.80;3.00;;;;;;;24.09;42.16;96740.44;116329;1179;68423;-66
2021/08/27 10:45:41;;;;;;;3.90;3.00;;;;;;;24.13;42.48;96741.36;116018;1185;59478;-67
2021/08/27 10:48:11;;;;;;;4.70;2.90;;;;;;;24.17;42.06;96738.20;116079;1179;59543;-65
2021/08/27 10:50:46;;;;;;;5.10;4.00;;;;;;;24.16;41.96;96738.70;116059;1185;70538;-66
2021/08/27 10:53:29;;;;;;;4.60;3.20;;;;;;;24.11;42.40;96734.05;115912;1184;68544;-66
2021/08/27 10:56:09;;;;;;;5.70;3.60;;;;;;;24.14;41.93;96735.31;115926;1185;68557;-65
2021/08/27 10:58:47;;;;;;;7.00;4.00;;;;;;;24.03;42.02;96727.71;116079;1181;59599;-66
2021/08/27 11:01:25;;;;;;;6.40;3.80;;;;;;;23.57;42.11;96727.35;116068;1183;59612;-64
2021/08/27 11:03:59;;;;;;;5.00;3.40;;;;;;;23.25;43.55;96736.06;116102;1185;71358;-66
2021/08/27 11:06:31;;;;;;;6.00;4.40;;;;;;;23.02;43.73;96747.60;116068;1181;68966;-66
2021/08/27 11:09:33;;;;;;;4.70;3.10;;;;;;;22.39;44.24;96757.55;115937;1185;68547;-66
2021/08/27 11:12:08;;;;;;;5.10;3.40;;;;;;;22.50;45.40;96764.80;116029;1181;59527;-65
2021/08/27 11:14:43;;;;;;;5.00;3.90;;;;;;;22.44;47.54;96769.34;115997;1182;59588;-65
2021/08/27 11:17:13;;;;;;;5.50;3.90;;;;;;;22.30;49.13;96769.97;116304;1178;71540;-66
2021/08/27 11:19:48;;;;;;;5.00;3.70;;;;;;;22.13;49.51;96771.90;116233;1183;69302;-64
2021/08/27 11:22:23;;;;;;;5.50;4.20;;;;;;;21.90;49.82;96768.36;116345;1184;69224;-65
2021/08/27 11:25:07;;;;;;;7.70;6.00;;;;;;;21.70;50.53;96771.33;116303;1182;59536;-67
2021/08/27 11:27:38;;;;;;;7.70;5.40;;;;;;;21.54;51.72;96769.25;116190;1184;59492;-65
2021/08/27 11:30:32;;;;;;;8.30;5.70;;;;;;;21.41;52.32;96773.67;116235;1182;69675;-67
2021/08/27 11:33:02;;;;;;;9.00;6.30;;;;;;;21.23;52.73;96771.39;116289;1181;69335;-63
2021/08/27 11:35:46;;;;;;;7.30;5.00;;;;;;;21.10;53.65;96772.61;116260;1181;68210;-68
2021/08/27 11:38:15;;;;;;;6.90;5.70;;;;;;;20.94;54.69;96770.14;116286;1182;59483;-65
2021/08/27 11:40:45;;;;;;;6.60;4.80;;;;;;;20.74;54.88;96773.63;116250;1183;59552;-65
2021/08/27 11:43:14;;;;;;;6.20;4.70;;;;;;;20.56;55.78;96773.25;116194;1183;70785;-68
2021/08/27 11:45:43;;;;;;;6.90;5.00;;;;;;;20.37;56.85;96781.52;116302;1183;67503;-68
2021/08/27 11:48:13;;;;;;;6.10;4.40;;;;;;;20.14;57.90;96788.98;116267;1182;69137;-68
2021/08/27 11:50:50;;;;;;;6.30;4.80;;;;;;;19.94;58.20;96787.02;116248;1182;59519;-67
2021/08/27 11:53:27;;;;;;;6.80;4.80;;;;;;;19.59;58.76;96794.91;116342;1178;59542;-68
2021/08/27 11:55:56;;;;;;;5.90;4.50;;;;;;;19.33;60.45;96805.21;116298;1185;70672;-68